Weather observations for the past three days for
Canton, Cherokee County Airport
Metric (Imperial)
Date Time (edt) Wind (kph) Vis. (km) Weather Sky Cond. Temperature (ºC) Relative Humidity Wind Chill (°C) Heat Index (°C) Pressure Precipitation (cm)
Air Dwpt 6 hour altimeter (cm) sea level (mb) 1 hr 3 hr 6 hr
Max. Min.
03 07:55 N 6 16.09 Fair CLR 22.6 21.6 24.7 21.8 94% 76.5 0.0
03 07:35 N 7 16.09 Fair CLR 22.1 21.5 96% 76.48 0.0
03 07:15 Calm 16.09 Fair CLR 23 21.5 91% 76.48 0.0
03 06:55 NE 6 16.09 Fair CLR 22.9 21.5 92% 76.45 0.0
03 06:35 N 7 16.09 Fair CLR 22.2 21.6 96% 76.45 0.0
03 06:15 N 6 11.27 Fog/Mist CLR 22.1 21.6 97% 76.45 0.0
03 05:55 N 6 11.27 Fog/Mist CLR 22.3 21.9 98% 76.43 0.0
03 05:35 Calm 16.09 Fair CLR 23.4 22.4 94% 76.43 0.0
03 05:15 Calm 16.09 Fair CLR 22.8 22.3 97% 76.43 0.0
03 04:55 Calm 11.27 Fair CLR 22.7 22.2 97% 76.45 0.0
03 04:35 Calm 16.09 Fair CLR 23.6 22.2 92% 76.45 0.0
03 04:15 Calm 16.09 Fair CLR 23.4 22.6 95% 76.45 0.0
03 03:55 N 6 16.09 Fair CLR 24.2 22.4 90% 24 76.43 0.0
03 03:35 N 6 16.09 Fair CLR 23.4 22.7 96% 76.43 0.0
03 03:15 NE 7 16.09 Fair CLR 24 22.8 93% 23 76.43 0.0
03 02:55 Calm 16.09 Fair CLR 24.6 22.7 89% 25 76.43 0.0
03 02:35 N 6 16.09 Fair CLR 23.6 23.1 97% 76.43 0.0
03 02:15 N 7 16.09 Fair CLR 24.4 23 92% 24 76.43 0.0
03 01:55 N 7 16.09 Fair CLR 23.8 23.2 31.5 23.7 96% 76.43 0.0
03 01:35 NE 6 16.09 Fair CLR 25.1 23.2 89% 26 76.43 0.0
03 01:15 NE 6 16.09 Fair CLR 25.7 23 85% 27 76.45 0.0
03 00:55 N 6 16.09 Fair CLR 24.8 23.2 91% 25 76.45 0.0
03 00:35 NE 6 16.09 Fair CLR 25.8 23.2 86% 27 76.45 0.0
03 00:15 NE 6 0.00 NULL NULL 25.5 23.8 90% 27 76.45 0.0
02 23:55 Calm 16.09 Fair CLR 25.2 24.1 94% 26 76.45 0.0
02 23:35 N 9 16.09 Fair CLR 25.4 24.2 93% 27 76.45 0.0
02 23:15 N 7 16.09 Fair CLR 25.6 24.5 94% 27 76.45 0.0
02 22:55 N 7 16.09 Fair CLR 25.7 24.6 94% 27 76.45 0.0
02 22:35 Calm 16.09 Fair CLR 26.8 24.6 88% 30 76.48 0.0
02 22:15 N 7 16.09 Fair CLR 28.2 23.9 78% 32 76.45 0.0
02 21:55 N 7 16.09 Fair CLR 26.5 24.3 88% 29 76.45 0.0
02 21:35 N 6 16.09 Fair CLR 27.1 24.6 86% 31 76.43 0.0
02 21:15 Calm 16.09 Fair CLR 30.1 22.5 64% 34 76.4 0.0
02 20:55 N 6 16.09 Fair CLR 28.6 25.1 81% 34 76.4 0.0
02 20:35 N 6 16.09 Fair CLR 29.1 25.1 79% 35 76.4 0.0
02 20:15 N 6 16.09 Fair CLR 30.7 22.3 61% 34 76.38 0.0
02 19:55 N 6 16.09 Fair CLR 31.3 22.4 36.1 30.2 59% 35 76.38 0.0
02 19:35 NW 7 16.09 Fair CLR 31.6 22.7 59% 36 76.38 0.0
02 19:15 NW 7 16.09 Fair CLR 32 23.1 59% 37 76.4 0.0
02 18:55 NW 7 16.09 Fair CLR 32.6 22 54% 37 76.38 0.0
02 18:35 N 7 11.27 Fair with Haze CLR 32.8 21.2 50% 36 76.4 0.0
02 18:15 NW 7 11.27 Partly Cloudy with Haze SCT065 32.2 22.4 56% 36 76.4 0.0
02 17:55 NW 7 16.09 Partly Cloudy SCT075 SCT080 SCT120 32.5 21.4 52% 36 76.4 0.0
02 17:35 NW 7 16.09 Partly Cloudy SCT060 SCT075 SCT120 31.1 20.9 55% 34 76.4 0.0
02 17:15 NW 13 16.09 Overcast OVC060 30.5 21.1 57% 33 76.43 0.0
02 16:55 N 17 16.09 Mostly Cloudy BKN060 34.5 20 43% 37 76.43 0.0
02 16:35 W 7 11.27 Partly Cloudy SCT070 35 20.2 42% 38 76.4 0.0
02 16:15 W 9 16.09 Fair CLR 33.8 20.7 46% 37 76.43 0.0
02 15:55 NW 6 16.09 Partly Cloudy SCT070 SCT110 32.7 20.2 48% 35 76.45 0.0
02 15:35 NW 9 16.09 Overcast BKN060 BKN070 OVC110 33 19.9 46% 35 76.48 0.0
02 15:15 N 7 16.09 Mostly Cloudy BKN060 BKN085 33.6 20 45% 36 76.48 0.0
02 14:55 Calm 4.02 Partly Cloudy with Haze SCT060 SCT085 35 19.7 41% 37 76.5 0.0
02 14:35 Calm 0.00 Fair CLR 34.1 20.9 46% 37 76.5 0.0
02 14:15 Calm 0.00 Mostly Cloudy BKN070 33.2 20.4 47% 36 76.53 0.0
02 13:55 N 6 16.09 Overcast OVC070 32.5 19.9 33.9 21.7 47% 35 76.53 0.0
02 13:35 NE 9 16.09 Overcast SCT055 OVC070 32.5 19.8 47% 35 76.56 0.0
02 13:15 N 6 16.09 Mostly Cloudy BKN055 BKN070 32.8 19.9 47% 35 76.58 0.0
02 12:55 SW 7 16.09 Fair CLR 32.5 20.4 49% 35 76.58 0.0
02 12:35 NW 7 16.09 Fair CLR 31.8 20.3 51% 34 76.61 0.0
02 12:15 W 6 11.27 Fair CLR 32.1 21 52% 35 76.63 0.0
02 11:55 N 6 11.27 Fair CLR 32.2 20.2 49% 35 76.63 0.0
02 11:35 Calm 16.09 Fair CLR 31.7 20.9 53% 34 76.66 0.0
02 11:15 Calm 16.09 Fair CLR 31.1 20.9 55% 34 76.66 0.0
02 10:55 E 7 16.09 Fair CLR 30.7 20.5 55% 33 76.66 0.0
02 10:35 SE 7 16.09 Fair CLR 30.5 21.8 60% 34 76.66 0.0
02 10:15 E 6 16.09 Fair CLR 30 21.9 62% 33 76.63 0.0
02 09:55 SE 7 16.09 Fair CLR 29 21.5 64% 32 76.63 0.0
02 09:35 SE 6 16.09 Fair CLR 28.4 21.7 67% 31 76.63 0.0
02 09:15 N 7 11.27 Fair CLR 26.2 21.1 74% 28 76.63 0.0
02 08:55 NE 7 16.09 Fair CLR 25.3 21.3 79% 26 76.63 0.0
02 08:35 Calm 16.09 Fair CLR 23.8 21.4 86% 76.63 0.0
02 08:15 N 6 16.09 Fair CLR 22 21.1 95% 76.63 0.0
02 07:55 N 6 0.00 NULL NULL 21.4 20.9 24.4 21 97% 76.61 0.0
02 07:35 N 6 16.09 Fair CLR 21.9 21.1 95% 76.61 0.0
02 07:15 Calm 16.09 Fair CLR 21.4 21.1 98% 76.56 0.0
02 06:55 Calm 16.09 Fair CLR 21.4 20.9 97% 76.56 0.0
02 06:35 Calm 16.09 Fair CLR 21.5 21.1 98% 76.56 0.0
02 06:15 Calm 16.09 Fair CLR 21.8 21.2 96% 76.53 0.0
02 05:55 Calm 16.09 Fair CLR 21.7 21.1 96% 76.53 0.0
02 05:35 Calm 16.09 Fair CLR 21.9 21.1 95% 76.53 0.0
02 05:15 Calm 16.09 Fair CLR 23.1 21.7 92% 76.5 0.0
02 04:55 Calm 16.09 Fair CLR 22.5 21.7 95% 76.5 0.0
02 04:35 Calm 16.09 Fair CLR 22.7 21.5 93% 76.48 0.0
02 04:15 Calm 16.09 Fair CLR 22.4 21.5 95% 76.5 0.0
02 03:55 Calm 16.09 Fair CLR 22.3 21.4 95% 76.48 0.0
02 03:35 Calm 16.09 Fair CLR 24.1 21.7 87% 24 76.48 0.0
02 03:15 Calm 16.09 Fair CLR 23.1 21.6 91% 76.48 0.0
02 02:55 N 6 16.09 Fair CLR 23.8 21.8 89% 76.48 0.0
02 02:35 N 6 16.09 Fair CLR 23.5 21.8 90% 76.48 0.0
02 02:15 Calm 16.09 Fair CLR 23.8 21.9 89% 76.5 0.0
02 01:55 Calm 16.09 Fair CLR 24.4 22 31.2 23.7 87% 25 76.5 0.0
02 01:35 Calm 16.09 Fair CLR 24.5 22 86% 25 76.5 0.0
02 01:15 Calm 16.09 Fair CLR 24.5 22.1 87% 25 76.5 0.0
02 00:55 Calm 16.09 Fair CLR 24.7 22 85% 25 76.5 0.0
02 00:35 Calm 16.09 Fair CLR 24.1 22.2 89% 24 76.5 0.0
02 00:15 Calm 16.09 Fair CLR 24.4 22 87% 25 76.5 0.0
01 23:55 Calm 16.09 Fair CLR 25.7 21.7 79% 27 76.5 0.0
01 23:35 Calm 16.09 Fair CLR 26 21.7 77% 28 76.5 0.0
01 23:15 Calm 16.09 Fair CLR 26.2 21.8 77% 28 76.5 0.0
01 22:55 Calm 16.09 Fair CLR 26.1 21.7 77% 28 76.5 0.0
01 22:35 Calm 16.09 Fair CLR 26.8 21.8 74% 29 76.5 0.0
01 22:15 N 6 16.09 Fair CLR 27.2 21.8 72% 29 76.5 0.0
01 21:55 N 7 16.09 Fair CLR 27.7 21.5 69% 30 76.48 0.0
01 21:35 N 9 16.09 Fair CLR 28.2 21.3 66% 31 76.48 0.0
01 21:15 N 9 16.09 Fair CLR 28.1 21.4 67% 30 76.48 0.0
01 20:55 N 9 16.09 Fair CLR 29.3 20.9 61% 32 76.45 0.0
01 20:35 N 9 0.00 Fair CLR 30.5 20.2 54% 33 76.45 0.0
01 20:15 N 7 16.09 Fair CLR 30.7 20 53% 33 76.45 0.0
01 19:55 N 6 16.09 Partly Cloudy SCT060 31.1 20 35 31.1 52% 33 76.45 0.0
01 19:35 N 6 16.09 Partly Cloudy SCT070 SCT075 31.9 20 49% 34 76.45 0.0
01 19:15 N 11 16.09 Mostly Cloudy BKN070 32.7 19.4 45% 35 76.45 0.0
01 18:55 N 9 16.09 Partly Cloudy SCT070 33.1 19.3 44% 35 76.45 0.0
01 18:35 NW 11 11.27 Partly Cloudy with Haze SCT065 33.1 18.9 43% 35 76.45 0.0
01 18:15 NW 11 0.00 Partly Cloudy SCT065 33.4 18.9 42% 35 76.45 0.0
01 17:55 N 11 4.02 Fair with Haze CLR 33.6 19 42% 35 76.43 0.0
01 17:35 Calm 16.09 Fair CLR 33.9 18.3 40% 35 76.43 0.0
01 17:15 N 13 8.05 Partly Cloudy with Haze SCT075 33.8 18.6 41% 35 76.43 0.0
01 16:55 NE 9 16.09 Mostly Cloudy BKN075 33.8 18.6 41% 35 76.45 0.0
01 16:35 NW 9 2.01 Mostly Cloudy with Haze BKN060 BKN070 33.9 18.3 40% 35 76.45 0.0
01 16:15 NW 7 0.00 Partly Cloudy SCT060 33.5 18.4 41% 35 76.48 0.0
01 15:55 N 13 0.00 Partly Cloudy SCT060 SCT075 34.1 18.7 40% 36 76.5 0.0
01 15:35 NW 13 0.00 Partly Cloudy SCT060 33.6 18.3 40% 35 76.5 0.0
01 15:15 N 11 8.05 Partly Cloudy with Haze SCT060 33.3 18.5 41% 35 76.53 0.0
01 14:55 NW 9 0.00 Partly Cloudy SCT060 33.3 18.2 41% 34 76.56 0.0
01 14:35 NW 13 16.09 Fair CLR 33.2 18.6 42% 35 76.56 0.0
01 14:15 NW 7 0.00 Fair CLR 33 18.3 42% 34 76.56 0.0
01 13:55 N 13 11.27 Fair CLR 32.8 18.5 33.2 20.5 43% 34 76.58 0.0
01 13:35 N 9 0.00 Partly Cloudy SCT050 32.4 18.6 44% 34 76.61 0.0
01 13:15 N 11 0.00 Partly Cloudy SCT050 32.2 19.1 46% 34 76.63 0.0
01 12:55 NW 13 0.00 Partly Cloudy SCT046 31.3 19.2 49% 33 76.66 0.0
01 12:35 W 13 0.00 Mostly Cloudy BKN046 31.2 19.4 49% 33 76.66 0.0
01 12:15 NE 9 16.09 Partly Cloudy SCT042 31.5 20.6 52% 34 76.68 0.0
01 11:55 NW 6 0.00 Fair CLR 30.5 20.5 55% 33 76.71 0.0
01 11:35 N 9 16.09 Fair CLR 30.1 20.5 56% 32 76.71 0.0
01 11:15 N 9 16.09 Fair CLR 29.5 20.2 57% 31 76.71 0.0
01 10:55 W 6 0.00 Fair CLR 28.6 20.6 62% 31 76.71 0.0
01 10:35 N 6 0.00 Fair CLR 28.3 20.1 61% 30 76.71 0.0
01 10:15 NW 6 16.09 Fair CLR 27.6 20.9 67% 30 76.71 0.0
01 09:55 Calm 16.09 Fair CLR 26.9 21.1 71% 29 76.71 0.0
01 09:35 Calm 16.09 Fair CLR 25.7 20.6 74% 27 76.71 0.0
01 09:15 N 6 16.09 Fair CLR 24 20.7 82% 24 76.68 0.0
01 08:55 Calm 11.27 Fair CLR 24.3 20.7 80% 25 76.68 0.0
01 08:35 Calm 0.00 Fair CLR 23.3 20.8 86% 76.68 0.0
01 08:15 N 6 0.00 NULL NULL 21.6 20.5 94% 76.68 0.0
01 07:55 Calm 16.09 Fair CLR 20.6 20.1 23.5 20.2 97% 76.66 0.0
01 07:35 Calm 16.09 Fair CLR 21.3 20.4 95% 76.63 0.0
01 07:15 Calm 0.00 NULL NULL 20.9 20.3 96% 76.63 0.0
01 06:55 N 6 11.27 Fair CLR 20.3 20 98% 76.61 0.0
01 06:35 Calm 16.09 Fair CLR 21.7 20.5 93% 76.61 0.0
01 06:15 Calm 16.09 Fair CLR 20.9 20.4 97% 76.61 0.0
01 05:55 N 7 16.09 Fair CLR 21.3 20.8 97% 76.58 0.0
01 05:35 N 7 11.27 Fair CLR 20.7 20.3 98% 76.56 0.0
01 05:15 Calm 16.09 Fair CLR 21.6 20.9 96% 76.56 0.0
01 04:55 Calm 16.09 Fair CLR 21.8 20.9 95% 76.56 0.0
01 04:35 Calm 16.09 Fair CLR 22.4 20.9 91% 76.56 0.0
01 04:15 Calm 16.09 Fair CLR 22.5 20.9 91% 76.56 0.0
01 03:55 Calm 16.09 Fair CLR 22.6 21.2 92% 76.56 0.0
01 03:35 Calm 16.09 Fair CLR 22.6 21.3 92% 76.56 0.0
01 03:15 N 6 16.09 Fair CLR 22.6 21.3 92% 76.56 0.0
01 02:55 NE 6 16.09 Fair CLR 22.8 21.6 93% 76.56 0.0
01 02:35 Calm 16.09 Fair CLR 22.8 21.5 92% 76.56 0.0
01 02:15 N 6 16.09 Fair CLR 23.1 21.7 92% 76.58 0.0
01 01:55 N 7 16.09 Fair CLR 23.2 21.7 30.2 22.3 91% 76.58 0.0
01 01:35 NE 6 0.00 NULL NULL 22.4 21.7 96% 76.61 0.0
01 01:15 N 6 16.09 Fair CLR 23.5 21.7 90% 76.58 0.0
01 00:55 N 9 16.09 Fair CLR 23.4 21.9 91% 76.58 0.0
01 00:35 N 7 16.09 Fair CLR 24.1 21.8 87% 24 76.58 0.0
01 00:15 N 9 16.09 Partly Cloudy SCT085 23.3 21.9 92% 76.58 0.0
31 23:55 Calm 16.09 Partly Cloudy SCT085 24.4 22 87% 25 76.58 0.0
31 23:35 NW 7 16.09 Fair CLR 24.5 22 86% 25 76.58 0.0
31 23:15 N 7 16.09 Fair CLR 23.9 22.2 90% 23 76.58 0.0
31 22:55 Calm 16.09 Partly Cloudy SCT100 25.5 22.1 82% 27 76.58 0.0
31 22:35 N 6 16.09 Partly Cloudy SCT100 25.5 22.2 82% 27 76.58 0.0
31 22:15 N 6 16.09 Partly Cloudy SCT100 25 22 83% 26 76.58 0.0
31 21:55 SE 6 16.09 Fair CLR 26.1 20.7 72% 28 76.56 0.0
31 21:35 Calm 16.09 Fair CLR 28 21 66% 30 76.56 0.0
31 21:15 Calm 16.09 Fair CLR 28.5 20.2 61% 30 76.53 0.0
31 20:55 Calm 16.09 Fair CLR 28.8 20.1 59% 31 76.5 0.0
31 20:35 Calm 16.09 Fair CLR 28.8 20.1 59% 31 76.5 0.0
31 20:15 E 6 0.00 Fair CLR 29.1 20.4 59% 31 76.5 0.0
31 19:35 Calm 0.00 Fair CLR 30.5 19.9 53% 32 76.48 0.0
31 19:15 Calm 0.00 Fair CLR 30.6 20.2 54% 33 76.5 0.0
31 18:55 NE 6 0.00 Partly Cloudy SCT110 31.3 19.4 49% 33 76.5 0.0
31 18:35 N 7 0.00 Mostly Cloudy SCT060 BKN110 31.1 19.7 51% 33 76.5 0.0
31 18:15 N 9 0.00 Mostly Cloudy BKN060 BKN070 31.9 19 46% 33 76.5 0.0
31 17:55 Calm 0.00 Mostly Cloudy BKN060 32.7 18.3 42% 34 76.53 0.0
31 17:35 NE 9 0.00 Partly Cloudy SCT060 32.6 18.5 43% 34 76.53 0.0
31 17:15 Calm 0.00 Partly Cloudy SCT100 30.9 19.6 51% 33 76.53 0.0
31 16:55 NE 6 16.09 Partly Cloudy SCT060 SCT075 31 18.3 47% 32 76.53 0.0
31 16:35 N 9 16.09 Overcast BKN060 BKN075 OVC100 32.3 18 43% 33 76.56 0.0
31 16:15 N 7 0.00 Mostly Cloudy SCT060 SCT075 BKN100 32.9 18 41% 34 76.56 0.0
31 15:55 N 7 0.00 Partly Cloudy SCT060 SCT070 32.4 19.1 45% 34 76.58 0.0
31 15:35 NE 7 0.00 Mostly Cloudy BKN055 BKN070 31.5 18.6 46% 33 76.58 0.0
31 15:15 Calm 16.09 Mostly Cloudy BKN055 BKN075 31.6 18.7 46% 33 76.61 0.0
31 14:55 NW 7 0.00 Partly Cloudy SCT055 31.2 19.4 49% 33 76.63 0.0
31 14:35 N 9 16.09 Partly Cloudy SCT048 30.6 19.2 51% 32 76.66 0.0
31 14:15 W 7 0.00 Partly Cloudy SCT048 31.1 19.1 49% 33 76.66 0.0
31 13:55 NW 9 16.09 Fair CLR 30.1 19.7 32.3 21.3 54% 32 76.66 0.0
31 13:35 E 11 16.09 Partly Cloudy SCT050 31.3 18.6 47% 32 76.68 0.0
31 13:15 E 7 16.09 Partly Cloudy with Haze SCT050 31.3 19.2 49% 33 76.71 0.0
31 12:55 Calm 0.00 Partly Cloudy SCT040 SCT050 28.9 19.6 57% 30 76.73 0.0
31 12:35 N 9 0.00 Mostly Cloudy BKN037 BKN043 29.4 19.9 57% 31 76.73 0.0
31 12:15 W 9 0.00 Partly Cloudy SCT039 29.4 20.4 58% 31 76.73 0.0
31 11:55 W 6 0.00 Fair CLR 27.7 20.7 66% 30 76.73 0.0
31 11:35 W 7 16.09 Partly Cloudy SCT026 SCT048 27.2 21.5 71% 29 76.76 0.0
31 11:15 NW 7 0.00 Partly Cloudy SCT020 SCT029 26.9 21.9 74% 29 76.76 0.0
31 10:55 N 6 0.00 Partly Cloudy SCT020 27.3 22.2 74% 30 76.76 0.0
31 10:35 Calm 16.09 Fair CLR 26.7 22.2 76% 29 76.76 0.0
31 10:15 Calm 16.09 Fair CLR 26.2 22 78% 28 76.76 0.0
31 09:55 Calm 4.02 Fair with Haze CLR 25.6 22 81% 27 76.76 0.0
31 09:35 Calm 16.09 Fair CLR 25.2 21.8 82% 26 76.76 0.0
31 09:15 E 9 0.00 Fair CLR 24 21.2 84% 24 76.76 0.0
31 08:55 E 7 16.09 Partly Cloudy SCT035 23.2 21 88% 76.76 0.0
31 08:35 Calm 16.09 Fair CLR 21.4 20.3 93% 76.73 0.0
31 08:15 SE 6 16.09 Fair CLR 21.8 20.4 92% 76.73 0.0
Date Time (edt) Wind (kph) Vis. (km) Weather Sky Cond. Air Dwpt Max. Min. Relative Humidity Wind Chill (°C) Heat Index (°C) altimeter (cm) sea level (mb) 1 hr 3 hr 6 hr
6 hour
Temperature (ºC) Pressure Precipitation (cm)